Time;durP1;ratioP1;P1;durP2;ratioP2;P2;SDS_P1;SDS_P2;PMS_P1;PMS_P2;Temp;Humidity;BMP_temperature;BMP_pressure;BME280_temperature;BME280_humidity;BME280_pressure;Samples;Min_cycle;Max_cycle;Signal;HPM_P1;HPM_P2
2022/12/30 00:00:07;;;;;;;3.80;1.37;;;;;;;7.37;86.89;99707.88;5072545;28;20202;-73
2022/12/30 00:02:32;;;;;;;0.93;0.77;;;;;;;7.39;86.15;99703.78;5071093;28;20228;-73
2022/12/30 00:04:57;;;;;;;1.30;1.03;;;;;;;7.40;85.90;99718.16;5072438;28;20182;-73
2022/12/30 00:07:23;;;;;;;6.37;1.33;;;;;;;7.37;86.44;99722.28;5072535;28;20170;-72
2022/12/30 00:09:48;;;;;;;9.83;1.57;;;;;;;7.35;86.22;99731.84;5072478;28;20162;-73
2022/12/30 00:34:18;;;;;;;3.97;1.77;;;;;;;7.30;85.99;99749.09;5072401;28;20665;-73
2022/12/30 00:36:46;;;;;;;3.60;2.40;;;;;;;7.30;85.80;99749.09;5071834;28;20181;-73
2022/12/30 00:39:11;;;;;;;3.27;1.17;;;;;;;7.35;84.84;99762.53;5071884;28;20206;-73
2022/12/30 00:44:20;;;;;;;10.27;1.73;;;;;;;7.31;84.96;99756.13;5071757;28;20181;-72
2022/12/30 00:46:46;;;;;;;2.10;1.20;;;;;;;7.34;83.88;99749.25;5071658;28;20644;-73
2022/12/30 00:57:25;;;;;;;6.70;1.73;;;;;;;7.37;83.20;99765.75;5071525;28;20224;-73
2022/12/30 00:59:50;;;;;;;2.20;0.47;;;;;;;7.33;83.84;99778.34;5071515;28;20694;-72
2022/12/30 01:02:15;;;;;;;3.30;1.70;;;;;;;7.30;83.67;99772.72;5071426;28;20182;-72
2022/12/30 01:04:41;;;;;;;5.93;1.50;;;;;;;7.28;84.02;99778.47;5071234;28;20190;-73
2022/12/30 01:07:06;;;;;;;2.63;1.10;;;;;;;7.31;83.84;99779.78;5071272;28;20182;-72
2022/12/30 01:09:34;;;;;;;5.93;1.80;;;;;;;7.28;83.85;99783.09;5071356;28;20170;-73
2022/12/30 01:12:08;;;;;;;2.93;1.70;;;;;;;7.27;84.17;99795.09;5071188;28;20170;-73
2022/12/30 01:14:40;;;;;;;2.23;1.80;;;;;;;7.22;84.55;99797.91;5071175;28;20185;-73
2022/12/30 01:17:07;;;;;;;2.73;1.53;;;;;;;7.22;84.32;99795.97;5071262;28;20174;-73
2022/12/30 01:19:33;;;;;;;5.23;1.83;;;;;;;7.21;83.98;99810.66;5070929;28;20256;-73
2022/12/30 01:21:58;;;;;;;7.83;2.63;;;;;;;7.22;84.10;99797.91;5071104;28;20261;-73
2022/12/30 01:24:24;;;;;;;3.60;1.67;;;;;;;7.29;83.29;99809.97;5069490;28;20253;-73
2022/12/30 01:26:49;;;;;;;9.60;2.40;;;;;;;7.31;83.38;99809.66;5071294;28;20508;-73
2022/12/30 01:29:30;;;;;;;21.77;2.03;;;;;;;7.34;82.88;99815.28;5070740;28;20166;-72
2022/12/30 01:31:57;;;;;;;2.23;1.17;;;;;;;7.34;82.10;99814.47;5070643;28;20175;-73
2022/12/30 01:34:22;;;;;;;13.13;2.87;;;;;;;7.39;81.55;99823.34;5070875;28;20162;-73
2022/12/30 01:36:49;;;;;;;9.13;2.00;;;;;;;7.38;81.77;99831.81;5070769;28;20175;-73
2022/12/30 01:39:14;;;;;;;2.13;1.50;;;;;;;7.41;81.19;99836.63;5070723;28;20552;-73
2022/12/30 01:41:40;;;;;;;1.70;1.00;;;;;;;7.36;81.88;99840.22;5070746;28;20166;-73
2022/12/30 01:44:43;;;;;;;4.60;1.80;;;;;;;7.36;81.84;99847.56;5070816;28;20185;-73
2022/12/30 01:47:10;;;;;;;9.50;1.73;;;;;;;7.36;81.94;99870.13;5070769;28;20633;-73
2022/12/30 01:49:39;;;;;;;1.17;0.87;;;;;;;7.39;81.74;99858.66;5070805;28;20232;-73
2022/12/30 01:52:05;;;;;;;10.13;1.33;;;;;;;7.34;82.23;99856.03;5070682;28;20202;-73
2022/12/30 01:54:31;;;;;;;9.73;1.17;;;;;;;7.32;82.52;99860.16;5070381;28;20610;-73
2022/12/30 01:56:57;;;;;;;11.23;1.40;;;;;;;7.28;82.59;99856.47;5070595;28;20661;-73
2022/12/30 01:59:26;;;;;;;4.97;1.90;;;;;;;7.24;82.64;99860.91;5070633;28;20301;-73
2022/12/30 02:01:51;;;;;;;12.23;2.10;;;;;;;7.20;83.77;99857.16;5070589;28;20178;-73
2022/12/30 02:04:20;;;;;;;3.03;1.50;;;;;;;7.25;82.84;99852.44;5070140;28;20205;-73
2022/12/30 02:06:58;;;;;;;15.77;1.23;;;;;;;7.25;82.74;99860.59;5070547;28;20205;-73
2022/12/30 02:09:25;;;;;;;1.77;1.43;;;;;;;7.20;83.30;99857.97;5069244;28;20197;-73
2022/12/30 02:11:51;;;;;;;1.60;1.03;;;;;;;7.21;83.45;99872.34;5070492;28;20177;-73
2022/12/30 02:14:16;;;;;;;13.03;2.40;;;;;;;7.20;83.55;99862.59;5070436;28;20265;-73
2022/12/30 02:16:54;;;;;;;12.40;3.40;;;;;;;7.23;82.96;99867.41;5070365;28;20183;-73
2022/12/30 02:19:43;;;;;;;5.80;2.87;;;;;;;7.25;82.67;99865.22;5071193;28;20564;-73
2022/12/30 02:22:14;;;;;;;8.43;2.67;;;;;;;7.20;82.92;99863.41;5073931;28;20193;-73
2022/12/30 02:25:24;;;;;;;1.33;1.23;;;;;;;7.18;83.28;99864.81;5079375;28;20179;-73
2022/12/30 02:28:12;;;;;;;3.30;1.90;;;;;;;7.14;83.52;99873.56;5062040;28;20188;-73
2022/12/30 02:31:08;;;;;;;2.57;0.73;;;;;;;7.13;83.63;99852.97;5070587;28;20159;-72
2022/12/30 02:33:49;;;;;;;28.80;2.60;;;;;;;7.13;83.35;99869.25;5069159;28;20729;-72
2022/12/30 02:36:17;;;;;;;5.93;1.77;;;;;;;7.12;83.52;99858.69;5070573;28;20167;-73
2022/12/30 02:38:51;;;;;;;5.97;1.83;;;;;;;7.11;82.95;99863.31;5070366;28;20555;-73
2022/12/30 02:47:03;;;;;;;13.23;1.40;;;;;;;7.13;83.26;99865.72;5074266;28;20177;-73
2022/12/30 02:49:31;;;;;;;2.27;1.93;;;;;;;7.10;83.29;99853.56;5073881;28;20170;-73
2022/12/30 02:52:17;;;;;;;1.80;1.70;;;;;;;7.06;84.01;99863.41;5074153;28;20190;-73
2022/12/30 02:54:46;;;;;;;1.07;0.97;;;;;;;7.04;84.09;99862.91;5073762;28;20552;-73
2022/12/30 02:57:29;;;;;;;3.17;1.43;;;;;;;6.99;84.08;99856.78;5073791;28;20222;-73
2022/12/30 03:06:39;;;;;;;1.63;0.67;;;;;;;6.87;85.13;99865.41;5073754;28;20186;-73
2022/12/30 03:09:29;;;;;;;3.90;1.67;;;;;;;6.88;84.85;99869.75;5073632;28;20199;-73
2022/12/30 03:12:11;;;;;;;4.50;2.40;;;;;;;6.91;84.91;99873.75;5073693;28;20289;-73
2022/12/30 03:14:52;;;;;;;8.50;1.70;;;;;;;6.90;85.50;99870.25;5073469;28;20512;-72
2022/12/30 03:17:26;;;;;;;8.87;1.40;;;;;;;6.87;85.29;99884.44;5073450;28;20166;-72
2022/12/30 03:19:55;;;;;;;1.80;1.40;;;;;;;6.86;85.67;99890.97;5073404;28;20203;-72
2022/12/30 03:27:56;;;;;;;5.13;1.00;;;;;;;6.99;83.49;99878.50;5073548;28;20711;-73
2022/12/30 03:30:22;;;;;;;3.23;1.73;;;;;;;6.99;83.75;99876.59;5073137;28;20202;-73
2022/12/30 03:32:47;;;;;;;12.87;1.43;;;;;;;6.94;83.90;99884.03;5072911;28;20170;-73
2022/12/30 03:35:14;;;;;;;9.17;2.07;;;;;;;6.91;83.91;99892.78;5073159;28;20187;-73
2022/12/30 03:37:44;;;;;;;2.67;2.03;;;;;;;6.93;83.69;99902.22;5073045;28;20603;-73
2022/12/30 03:40:26;;;;;;;3.83;1.83;;;;;;;6.93;83.85;99902.22;5073018;28;20198;-73
2022/12/30 03:42:53;;;;;;;4.00;1.10;;;;;;;6.88;84.29;99907.75;5072852;28;20420;-73
2022/12/30 03:45:19;;;;;;;1.07;1.07;;;;;;;6.89;84.17;99911.28;5072853;28;20214;-73
2022/12/30 03:47:45;;;;;;;4.73;1.53;;;;;;;6.89;84.26;99912.09;5071435;28;20472;-73
2022/12/30 03:50:10;;;;;;;1.77;0.50;;;;;;;6.90;84.46;99921.03;5073042;28;20186;-73
2022/12/30 03:52:36;;;;;;;5.70;1.00;;;;;;;6.94;83.62;99919.31;5071233;28;20170;-73
2022/12/30 03:55:01;;;;;;;5.90;2.00;;;;;;;6.94;83.63;99914.69;5072865;28;20526;-73
2022/12/30 03:57:27;;;;;;;5.57;1.60;;;;;;;6.91;83.72;99914.50;5072918;28;20229;-73
2022/12/30 03:59:52;;;;;;;8.33;1.77;;;;;;;6.88;83.98;99915.09;5072679;28;20805;-73
2022/12/30 04:02:17;;;;;;;2.80;1.40;;;;;;;6.89;84.62;99916.72;5072462;28;20167;-73
2022/12/30 04:04:43;;;;;;;18.67;1.37;;;;;;;6.84;84.84;99920.34;5072442;28;20198;-73
2022/12/30 04:07:08;;;;;;;6.97;1.80;;;;;;;6.83;85.24;99914.09;5070979;28;20170;-73
2022/12/30 04:09:33;;;;;;;3.43;0.90;;;;;;;6.82;84.88;99912.50;5072409;28;20179;-73
2022/12/30 04:11:59;;;;;;;5.17;2.00;;;;;;;6.84;84.96;99909.47;5072492;28;20175;-73
2022/12/30 04:14:24;;;;;;;9.27;1.97;;;;;;;6.88;84.71;99905.03;5072302;28;20368;-73
2022/12/30 04:16:49;;;;;;;3.07;1.10;;;;;;;6.84;84.53;99912.19;5072286;28;20221;-73
2022/12/30 04:19:14;;;;;;;6.20;0.97;;;;;;;6.85;84.81;99922.75;5072211;28;20696;-73
2022/12/30 04:21:40;;;;;;;5.13;1.00;;;;;;;6.88;84.98;99925.97;5072316;28;20208;-73
2022/12/30 04:24:06;;;;;;;3.30;1.57;;;;;;;6.85;85.11;99916.50;5071990;28;20171;-72
2022/12/30 04:26:31;;;;;;;7.07;1.63;;;;;;;6.80;85.91;99931.00;5072053;28;20532;-73
2022/12/30 04:28:56;;;;;;;1.83;1.07;;;;;;;6.78;86.12;99930.47;5071904;28;20181;-73
2022/12/30 04:31:22;;;;;;;9.47;1.37;;;;;;;6.76;86.75;99923.72;5072167;28;20174;-73
2022/12/30 04:33:49;;;;;;;10.43;1.40;;;;;;;6.77;86.48;99934.28;5071881;28;20693;-73
2022/12/30 04:36:14;;;;;;;2.93;0.77;;;;;;;6.77;86.47;99941.63;5071843;28;20171;-73
2022/12/30 04:38:39;;;;;;;7.10;1.23;;;;;;;6.71;87.08;99942.81;5071742;28;20645;-72
2022/12/30 04:41:05;;;;;;;4.87;1.20;;;;;;;6.69;86.77;99948.56;5071774;28;20228;-73
2022/12/30 04:43:30;;;;;;;13.23;2.03;;;;;;;6.67;86.96;99963.53;5071335;28;20642;-73
2022/12/30 04:45:55;;;;;;;9.80;1.47;;;;;;;6.67;87.13;99958.09;5071866;28;20175;-73
2022/12/30 04:48:21;;;;;;;4.77;0.90;;;;;;;6.64;87.51;99958.66;5071757;28;20182;-73
2022/12/30 04:50:48;;;;;;;6.23;2.10;;;;;;;6.60;87.84;99955.75;5071539;28;20178;-73
2022/12/30 04:53:13;;;;;;;5.03;1.63;;;;;;;6.61;87.56;99962.78;5071504;28;20185;-73
2022/12/30 04:55:38;;;;;;;3.67;2.10;;;;;;;6.59;87.91;99975.06;5071426;28;20179;-72
2022/12/30 04:58:05;;;;;;;9.87;1.57;;;;;;;6.55;88.25;99969.41;5071379;28;20634;-73
2022/12/30 05:00:31;;;;;;;1.60;1.43;;;;;;;6.57;88.19;99964.50;5071466;28;20271;-73
2022/12/30 05:02:57;;;;;;;1.50;1.13;;;;;;;6.53;88.82;99966.19;5071466;28;20315;-73
2022/12/30 05:05:23;;;;;;;5.85;1.80;;;;;;;6.52;88.65;99978.97;5071118;28;20451;-73
2022/12/30 05:07:49;;;;;;;3.97;1.97;;;;;;;6.50;88.80;99973.00;5070659;28;20178;-73
2022/12/30 05:10:14;;;;;;;9.23;1.13;;;;;;;6.53;89.03;99979.78;5070047;28;20540;-73
2022/12/30 05:12:39;;;;;;;0.77;0.77;;;;;;;6.54;88.88;99984.09;5071051;28;20178;-73
2022/12/30 05:15:05;;;;;;;9.50;1.83;;;;;;;6.50;89.40;99991.19;5071514;28;20181;-73
2022/12/30 05:17:31;;;;;;;2.73;1.27;;;;;;;6.53;89.51;99988.72;5070868;28;20232;-73
2022/12/30 05:19:56;;;;;;;7.47;0.90;;;;;;;6.52;89.39;99999.88;5071229;28;20202;-73
2022/12/30 05:22:21;;;;;;;3.97;1.20;;;;;;;6.50;89.79;100008.28;5070813;28;20224;-73
2022/12/30 05:27:31;;;;;;;11.50;1.73;;;;;;;6.45;90.21;100005.66;5071080;28;20177;-73
2022/12/30 05:29:56;;;;;;;1.07;0.53;;;;;;;6.46;90.37;99990.97;5070809;28;20696;-73
2022/12/30 05:32:21;;;;;;;6.00;2.03;;;;;;;6.46;90.37;99990.97;5070861;28;20178;-73
2022/12/30 05:34:47;;;;;;;3.63;1.43;;;;;;;6.49;90.51;99992.28;5070863;28;20231;-73
2022/12/30 05:37:12;;;;;;;2.90;1.80;;;;;;;6.51;90.31;99998.25;5070709;28;20239;-73
2022/12/30 05:39:38;;;;;;;2.37;0.53;;;;;;;6.53;90.24;99993.34;5070676;28;20194;-73
2022/12/30 05:42:03;;;;;;;4.53;1.30;;;;;;;6.53;90.75;99990.63;5070668;28;20183;-73
2022/12/30 05:44:28;;;;;;;3.60;1.80;;;;;;;6.52;90.81;100000.66;5070571;28;20162;-73
2022/12/30 05:46:54;;;;;;;5.67;1.40;;;;;;;6.54;90.51;100003.09;5070800;28;20178;-73
2022/12/30 05:49:19;;;;;;;2.53;1.17;;;;;;;6.57;90.83;99999.78;5070731;28;20186;-73
2022/12/30 05:51:44;;;;;;;5.70;0.70;;;;;;;6.59;91.03;100010.34;5070653;28;20656;-72
2022/12/30 05:54:09;;;;;;;9.07;2.57;;;;;;;6.62;90.65;100004.31;5070433;28;20177;-73
2022/12/30 05:56:35;;;;;;;3.27;0.60;;;;;;;6.63;90.34;100001.28;5070574;28;20201;-73
2022/12/30 05:59:00;;;;;;;6.17;1.30;;;;;;;6.65;90.01;99998.28;5070560;28;20170;-73
2022/12/30 06:01:26;;;;;;;14.63;2.17;;;;;;;6.64;89.83;100000.19;5070671;28;20857;-73
2022/12/30 06:03:55;;;;;;;0.60;0.60;;;;;;;6.64;90.04;99999.38;5070428;28;20532;-73
2022/12/30 06:06:20;;;;;;;17.53;2.73;;;;;;;6.60;90.21;100007.31;5070388;28;20171;-73
2022/12/30 06:08:45;;;;;;;0.57;0.57;;;;;;;6.58;90.33;100009.53;5070428;28;20178;-73
2022/12/30 06:11:11;;;;;;;0.93;0.57;;;;;;;6.52;90.34;100010.72;5070352;28;20175;-73
2022/12/30 06:13:36;;;;;;;0.90;0.77;;;;;;;6.53;90.65;100015.03;5070512;28;20170;-73
2022/12/30 06:16:01;;;;;;;5.57;0.80;;;;;;;6.50;91.04;100013.69;5070287;28;20618;-73
2022/12/30 06:18:26;;;;;;;0.33;0.33;;;;;;;6.49;90.63;100024.84;5072677;28;20250;-73
2022/12/30 06:20:53;;;;;;;0.10;0.10;;;;;;;6.57;90.41;100010.63;5074204;28;20197;-73
2022/12/30 06:23:18;;;;;;;13.00;1.63;;;;;;;6.59;90.52;100018.47;5074302;28;20684;-73
2022/12/30 06:25:44;;;;;;;3.77;0.63;;;;;;;6.59;90.49;100016.56;5074377;28;20266;-73
2022/12/30 06:28:09;;;;;;;3.87;0.73;;;;;;;6.59;90.33;100023.91;5074710;28;20201;-73
2022/12/30 06:30:34;;;;;;;2.03;1.17;;;;;;;6.59;89.96;100029.34;5074153;28;20178;-73
2022/12/30 06:33:00;;;;;;;3.63;1.07;;;;;;;6.56;90.39;100030.72;5074538;28;20700;-73
2022/12/30 06:35:25;;;;;;;0.43;0.43;;;;;;;6.61;89.84;100030.66;5074508;28;20185;-73
2022/12/30 06:37:51;;;;;;;0.00;0.00;;;;;;;6.56;90.36;100031.53;5074336;28;20189;-73
2022/12/30 06:40:16;;;;;;;0.00;0.00;;;;;;;6.56;90.20;100022.59;5072900;28;20694;-73
2022/12/30 06:42:42;;;;;;;0.30;0.30;;;;;;;6.55;90.15;100019.06;5072779;28;20185;-73
2022/12/30 06:45:08;;;;;;;0.40;0.40;;;;;;;6.52;89.83;100022.38;5072738;28;20185;-74
2022/12/30 06:47:33;;;;;;;0.20;0.20;;;;;;;6.54;90.01;100027.50;5073920;28;20174;-73
2022/12/30 06:49:59;;;;;;;0.27;0.27;;;;;;;6.55;89.35;100016.34;5074048;28;20189;-73
2022/12/30 06:52:24;;;;;;;0.00;0.00;;;;;;;6.50;89.31;100013.69;5072755;28;20185;-73
2022/12/30 06:54:49;;;;;;;1.33;0.97;;;;;;;6.51;89.37;100018.06;5073708;28;20178;-73
2022/12/30 06:57:15;;;;;;;0.10;0.10;;;;;;;6.49;88.98;100008.56;5073882;28;20258;-73
2022/12/30 06:59:40;;;;;;;0.20;0.20;;;;;;;6.41;89.18;100020.09;5073870;28;20666;-73
2022/12/30 07:02:05;;;;;;;6.93;0.97;;;;;;;6.42;89.17;100025.25;5073818;28;20270;-73
2022/12/30 07:04:31;;;;;;;1.67;0.93;;;;;;;6.44;89.36;100020.31;5073466;28;20270;-73
2022/12/30 07:06:56;;;;;;;0.83;0.73;;;;;;;6.39;88.76;100022.31;5073690;28;20514;-73
2022/12/30 07:09:22;;;;;;;1.67;1.10;;;;;;;6.37;89.02;100030.75;5073584;28;20621;-73
2022/12/30 07:11:47;;;;;;;5.57;1.13;;;;;;;6.39;88.86;100039.41;5073630;28;20208;-73
2022/12/30 07:14:12;;;;;;;1.00;1.00;;;;;;;6.39;88.35;100023.13;5071999;28;20232;-73
2022/12/30 07:16:37;;;;;;;9.43;0.57;;;;;;;6.38;88.76;100024.22;5073536;28;20338;-74
2022/12/30 07:19:03;;;;;;;7.00;0.93;;;;;;;6.44;88.05;100023.03;5073465;28;20171;-73
2022/12/30 07:21:29;;;;;;;0.93;0.53;;;;;;;6.44;87.80;100022.22;5072062;28;20175;-73
2022/12/30 07:23:54;;;;;;;6.27;0.77;;;;;;;6.37;88.08;100019.09;5071950;28;20814;-73
2022/12/30 07:26:19;;;;;;;7.93;0.93;;;;;;;6.43;87.73;100024.13;5071985;28;20186;-72
2022/12/30 07:28:44;;;;;;;0.83;0.60;;;;;;;6.46;87.38;100044.44;5072731;28;20258;-73
2022/12/30 07:31:10;;;;;;;10.10;1.00;;;;;;;6.41;87.47;100030.97;5072976;28;20580;-72
2022/12/30 07:33:35;;;;;;;3.63;1.17;;;;;;;6.37;87.59;100030.75;5073344;28;20174;-72
2022/12/30 07:36:00;;;;;;;0.60;0.30;;;;;;;6.35;87.91;100037.53;5073428;28;20189;-72
2022/12/30 07:38:26;;;;;;;0.10;0.10;;;;;;;6.29;88.09;100039.53;5073280;28;20178;-72
2022/12/30 07:40:51;;;;;;;0.20;0.20;;;;;;;6.28;88.02;100043.34;5071695;28;20801;-72
2022/12/30 07:43:16;;;;;;;1.40;0.43;;;;;;;6.28;87.99;100047.97;5072819;28;20223;-72
2022/12/30 07:45:42;;;;;;;4.43;1.60;;;;;;;6.22;88.04;100058.06;5073001;28;20249;-72
2022/12/30 07:48:08;;;;;;;0.00;0.00;;;;;;;6.28;87.81;100046.06;5073093;28;20215;-72
2022/12/30 07:50:33;;;;;;;0.33;0.33;;;;;;;6.19;87.87;100047.81;5073129;28;20166;-72
2022/12/30 07:52:59;;;;;;;2.47;0.67;;;;;;;6.18;87.95;100049.72;5072699;28;20679;-72
2022/12/30 07:55:24;;;;;;;0.00;0.00;;;;;;;6.18;87.77;100046.19;5072900;28;20174;-72
2022/12/30 07:57:50;;;;;;;0.00;0.00;;;;;;;6.11;87.59;100046.56;5071506;28;20175;-72
2022/12/30 08:00:16;;;;;;;14.67;1.37;;;;;;;6.11;87.42;100056.59;5072775;28;20202;-72
2022/12/30 08:02:41;;;;;;;0.37;0.37;;;;;;;6.09;87.32;100042.53;5072469;28;20163;-73
2022/12/30 08:05:07;;;;;;;0.00;0.00;;;;;;;5.99;87.59;100045.38;5072692;28;20246;-72
2022/12/30 08:07:34;;;;;;;1.70;1.03;;;;;;;6.02;87.60;100044.78;5071310;28;20387;-73
2022/12/30 08:09:59;;;;;;;1.47;0.30;;;;;;;6.00;87.53;100039.66;5072640;28;20171;-72
2022/12/30 08:12:25;;;;;;;9.03;0.77;;;;;;;6.00;87.71;100047.78;5072756;28;20170;-72
2022/12/30 08:14:50;;;;;;;1.77;1.67;;;;;;;5.98;87.23;100044.56;5072333;28;20186;-72
2022/12/30 08:17:16;;;;;;;3.30;0.10;;;;;;;5.96;87.88;100044.06;5072293;28;20170;-72
2022/12/30 08:19:41;;;;;;;0.00;0.00;;;;;;;5.96;87.57;100035.91;5072074;28;20300;-73
2022/12/30 08:22:06;;;;;;;0.63;0.63;;;;;;;5.94;87.79;100043.53;5072315;28;20171;-72
2022/12/30 08:24:32;;;;;;;1.30;0.73;;;;;;;5.91;87.99;100039.47;5070756;28;20183;-73
2022/12/30 08:26:57;;;;;;;0.87;0.83;;;;;;;5.88;88.19;100036.50;5072208;28;20200;-73
2022/12/30 08:29:23;;;;;;;0.63;0.63;;;;;;;5.91;88.27;100035.97;5071768;28;20269;-73
2022/12/30 08:31:49;;;;;;;0.13;0.13;;;;;;;5.88;88.15;100034.59;5072190;28;20237;-73
2022/12/30 08:34:19;;;;;;;1.47;1.00;;;;;;;5.88;88.34;100029.19;5070406;28;20649;-73
2022/12/30 08:36:45;;;;;;;0.00;0.00;;;;;;;5.88;88.38;100028.38;5071460;28;20186;-73
2022/12/30 08:39:11;;;;;;;0.47;0.47;;;;;;;5.93;88.23;100036.47;5071720;28;20706;-73
2022/12/30 08:41:39;;;;;;;14.10;0.83;;;;;;;5.96;88.12;100030.50;5070286;28;20657;-73
2022/12/30 08:44:06;;;;;;;0.00;0.00;;;;;;;5.96;88.02;100030.50;5071369;28;20509;-73
2022/12/30 08:46:33;;;;;;;0.00;0.00;;;;;;;6.01;88.34;100037.75;5069976;28;20217;-73
2022/12/30 08:48:59;;;;;;;16.63;2.03;;;;;;;5.99;87.79;100035.31;5069890;28;20182;-73
2022/12/30 08:51:26;;;;;;;0.33;0.33;;;;;;;5.96;88.28;100038.63;5071410;28;20171;-75
2022/12/30 08:53:51;;;;;;;0.67;0.67;;;;;;;5.93;88.86;100039.19;5070894;28;20245;-75
2022/12/30 08:56:24;;;;;;;0.00;0.00;;;;;;;5.93;88.94;100040.03;5071106;28;20170;-75
2022/12/30 08:58:51;;;;;;;9.33;1.17;;;;;;;5.95;89.08;100035.09;5069869;28;20190;-74
2022/12/30 09:01:20;;;;;;;7.73;1.53;;;;;;;5.96;89.36;100044.06;5071204;28;20175;-74
2022/12/30 09:03:47;;;;;;;3.93;1.60;;;;;;;5.99;89.29;100043.47;5070655;28;20179;-75
2022/12/30 09:06:14;;;;;;;4.17;0.50;;;;;;;5.99;89.45;100046.19;5070812;28;20170;-75
2022/12/30 09:08:40;;;;;;;0.80;0.77;;;;;;;5.98;89.79;100041.84;5069744;28;20274;-75
2022/12/30 09:11:06;;;;;;;2.80;1.43;;;;;;;6.00;89.84;100044.28;5070795;28;20262;-74
2022/12/30 09:13:32;;;;;;;0.33;0.27;;;;;;;6.01;89.82;100037.75;5068130;28;20214;-75
2022/12/30 09:15:58;;;;;;;3.13;2.47;;;;;;;6.01;90.05;100054.81;5069457;28;20603;-75
2022/12/30 09:18:24;;;;;;;2.63;0.93;;;;;;;6.07;90.06;100055.56;5070903;28;20181;-75
2022/12/30 09:20:49;;;;;;;0.63;0.43;;;;;;;6.08;89.94;100054.47;5070730;28;20206;-75
2022/12/30 09:23:15;;;;;;;1.60;1.00;;;;;;;6.11;89.45;100046.56;5069028;28;20183;-75
2022/12/30 09:25:41;;;;;;;0.63;0.30;;;;;;;6.13;89.65;100041.66;5069002;28;20277;-75
2022/12/30 09:28:06;;;;;;;4.40;1.30;;;;;;;6.14;89.79;100054.09;5070350;28;20544;-75
2022/12/30 09:30:36;;;;;;;0.83;0.83;;;;;;;6.25;89.04;100044.75;5069928;28;20178;-75
2022/12/30 09:33:01;;;;;;;7.63;1.90;;;;;;;6.27;88.56;100041.75;5068664;28;20244;-75
2022/12/30 09:35:27;;;;;;;0.67;0.67;;;;;;;6.30;88.96;100035.72;5069131;28;20179;-75
2022/12/30 09:37:52;;;;;;;6.90;0.87;;;;;;;6.31;88.43;100031.91;5070025;28;20178;-75
2022/12/30 09:40:26;;;;;;;0.97;0.97;;;;;;;6.34;88.38;100041.34;5070254;28;20242;-75
2022/12/30 09:45:46;;;;;;;8.23;0.90;;;;;;;6.40;88.43;100023.94;5070169;28;20196;-75
2022/12/30 09:48:19;;;;;;;3.20;1.60;;;;;;;6.42;87.65;100040.72;5069160;28;20269;-75
2022/12/30 09:50:53;;;;;;;0.00;0.00;;;;;;;6.43;87.87;100020.63;5070552;28;20186;-75
2022/12/30 09:53:59;;;;;;;0.13;0.13;;;;;;;6.48;87.54;100015.91;5069747;28;20185;-75
2022/12/30 09:56:29;;;;;;;4.40;2.87;;;;;;;6.56;87.29;100017.16;4971857;28;20263;-75
2022/12/30 09:58:56;;;;;;;0.17;0.03;;;;;;;6.64;87.01;100018.38;5050729;28;20336;-75
2022/12/30 10:01:39;;;;;;;1.43;1.33;;;;;;;6.70;86.67;100012.59;5070218;28;20175;-74
2022/12/30 10:04:13;;;;;;;8.40;1.87;;;;;;;6.76;86.67;100010.59;5070284;28;20228;-74
2022/12/30 10:07:08;;;;;;;3.23;1.13;;;;;;;6.83;85.81;100003.69;5076726;28;20177;-84
2022/12/30 10:09:41;;;;;;;8.33;4.63;;;;;;;6.85;85.93;99996.06;5077774;28;20167;-89
2022/12/30 10:12:22;;;;;;;10.97;1.90;;;;;;;6.89;85.18;99992.75;5070819;28;20170;-74
2022/12/30 10:15:06;;;;;;;4.53;1.57;;;;;;;6.92;84.78;99998.38;5070186;28;20283;-74
2022/12/30 10:17:45;;;;;;;6.17;1.33;;;;;;;6.98;84.59;99985.53;5070533;28;20253;-74
2022/12/30 10:20:38;;;;;;;0.83;0.80;;;;;;;7.03;84.51;99990.84;5070468;28;20202;-74
2022/12/30 10:23:22;;;;;;;7.73;3.30;;;;;;;7.09;84.77;99986.97;5069022;28;20596;-73
2022/12/30 10:25:58;;;;;;;4.73;2.07;;;;;;;7.12;84.50;99976.31;5070240;28;20166;-74
2022/12/30 10:28:35;;;;;;;0.00;0.00;;;;;;;7.12;84.26;99967.34;5070479;28;20846;-73
2022/12/30 10:31:02;;;;;;;0.00;0.00;;;;;;;7.18;84.25;99962.63;5068706;28;20182;-74
2022/12/30 10:33:31;;;;;;;1.43;1.40;;;;;;;7.25;83.93;99958.41;5070074;28;20167;-73
2022/12/30 10:36:10;;;;;;;3.67;0.33;;;;;;;7.28;83.73;99957.78;5070264;28;20658;-73
2022/12/30 10:38:36;;;;;;;2.63;1.00;;;;;;;7.27;83.58;99942.59;5070345;28;20170;-73
2022/12/30 10:41:10;;;;;;;3.03;0.93;;;;;;;7.29;83.29;99934.94;5070032;28;20198;-74
2022/12/30 10:44:15;;;;;;;0.00;0.00;;;;;;;7.32;83.75;99936.25;5070027;28;20183;-73
2022/12/30 10:47:26;;;;;;;0.10;0.10;;;;;;;7.32;82.82;99928.91;5070090;28;20744;-73
2022/12/30 10:50:01;;;;;;;1.80;0.30;;;;;;;7.33;83.40;99925.09;5016787;28;20190;-74
2022/12/30 10:52:27;;;;;;;0.10;0.10;;;;;;;7.35;83.04;99924.78;5066423;28;20212;-74
2022/12/30 10:54:52;;;;;;;0.00;0.00;;;;;;;7.34;82.89;99907.66;5070054;28;20202;-73
2022/12/30 10:57:24;;;;;;;0.33;0.33;;;;;;;7.36;82.61;99894.56;5070262;28;20175;-73
2022/12/30 10:59:53;;;;;;;0.00;0.00;;;;;;;7.33;82.86;99888.94;5069989;28;20225;-74
2022/12/30 11:02:24;;;;;;;0.00;0.00;;;;;;;7.44;82.47;99888.44;5069823;28;20224;-74
2022/12/30 11:04:49;;;;;;;0.00;0.00;;;;;;;7.41;82.67;99874.66;5070779;28;20186;-73
2022/12/30 11:07:16;;;;;;;5.93;1.13;;;;;;;7.55;82.47;99863.78;5073602;28;20227;-74
2022/12/30 11:09:44;;;;;;;0.00;0.00;;;;;;;7.53;82.43;99853.22;5073767;28;20609;-73
2022/12/30 11:15:10;;;;;;;0.00;0.00;;;;;;;7.56;82.17;99849.88;5073903;28;20205;-74
2022/12/30 11:17:41;;;;;;;0.77;0.20;;;;;;;7.64;81.72;99843.69;5073509;28;20692;-72
2022/12/30 11:20:13;;;;;;;0.30;0.30;;;;;;;7.66;81.93;99838.75;5072271;28;20198;-72
2022/12/30 11:22:49;;;;;;;0.00;0.00;;;;;;;7.68;81.92;99827.59;5072042;28;20554;-72
2022/12/30 11:25:33;;;;;;;0.00;0.00;;;;;;;7.75;81.35;99830.69;5073474;28;20530;-72
2022/12/30 11:28:20;;;;;;;0.40;0.40;;;;;;;7.84;81.10;99812.53;5073462;28;20514;-72
2022/12/30 11:30:55;;;;;;;7.00;0.70;;;;;;;7.87;81.14;99808.38;5071668;28;20178;-74
2022/12/30 11:33:32;;;;;;;4.13;0.80;;;;;;;7.90;80.68;99814.00;5071824;28;20215;-74
2022/12/30 11:36:14;;;;;;;0.00;0.00;;;;;;;7.92;80.84;99800.88;5073227;28;20189;-74
2022/12/30 11:38:47;;;;;;;6.70;1.93;;;;;;;7.95;80.40;99794.81;5071821;28;20190;-74
2022/12/30 11:41:17;;;;;;;0.20;0.20;;;;;;;7.99;80.64;99776.00;5073117;28;20206;-73
2022/12/30 11:44:08;;;;;;;0.40;0.40;;;;;;;8.03;80.45;99766.09;5072925;28;20166;-75
2022/12/30 11:46:37;;;;;;;0.20;0.20;;;;;;;8.08;80.74;99760.50;5068883;28;20195;-73
2022/12/30 11:49:16;;;;;;;0.00;0.00;;;;;;;8.14;80.49;99758.47;5072880;28;20180;-73
2022/12/30 11:51:45;;;;;;;0.00;0.00;;;;;;;8.20;80.49;99749.84;5073181;28;20178;-72
2022/12/30 11:54:11;;;;;;;2.73;0.20;;;;;;;8.25;80.57;99736.13;5072682;28;20175;-73
2022/12/30 11:56:50;;;;;;;0.00;0.00;;;;;;;8.37;79.65;99742.91;5072822;28;20233;-74
2022/12/30 11:59:18;;;;;;;0.00;0.00;;;;;;;8.31;80.07;99734.88;5072844;28;20192;-73
2022/12/30 12:01:46;;;;;;;0.23;0.23;;;;;;;8.30;79.79;99732.47;5072661;28;20177;-73
2022/12/30 12:04:37;;;;;;;0.00;0.00;;;;;;;8.37;79.71;99729.31;5072387;28;20183;-74
2022/12/30 12:07:26;;;;;;;0.10;0.10;;;;;;;8.37;79.58;99724.66;5072704;28;20174;-74
2022/12/30 12:10:05;;;;;;;0.00;0.00;;;;;;;8.32;79.18;99713.91;5072711;28;20174;-73
2022/12/30 12:12:56;;;;;;;0.70;0.33;;;;;;;8.32;79.68;99705.72;5072405;28;20186;-74
2022/12/30 12:15:42;;;;;;;0.00;0.00;;;;;;;8.25;78.96;99694.50;5060832;28;20182;-74
2022/12/30 12:18:21;;;;;;;0.00;0.00;;;;;;;8.33;79.39;99699.16;5072471;28;20170;-74
2022/12/30 12:20:54;;;;;;;0.00;0.00;;;;;;;8.32;79.48;99679.31;5072312;28;20733;-74
2022/12/30 12:23:19;;;;;;;0.00;0.00;;;;;;;8.34;79.41;99679.03;5072097;28;20158;-74
2022/12/30 12:26:07;;;;;;;0.00;0.00;;;;;;;8.24;79.27;99658.31;5070922;28;20235;-74
2022/12/30 12:28:36;;;;;;;0.00;0.00;;;;;;;8.33;78.88;99652.91;5072122;28;20651;-77
2022/12/30 12:31:20;;;;;;;2.17;0.50;;;;;;;8.44;78.09;99632.47;5072206;28;20167;-76
2022/12/30 12:33:53;;;;;;;0.00;0.00;;;;;;;8.26;78.62;99612.56;5072280;28;20555;-73
2022/12/30 12:36:31;;;;;;;0.33;0.33;;;;;;;8.37;79.13;99615.78;5070665;28;20189;-74
2022/12/30 12:38:59;;;;;;;0.40;0.30;;;;;;;8.20;78.67;99607.56;5070657;28;20174;-74
2022/12/30 12:41:52;;;;;;;0.00;0.00;;;;;;;8.38;78.08;99598.34;5071825;28;20212;-74
2022/12/30 12:44:28;;;;;;;0.97;0.80;;;;;;;8.41;78.12;99602.38;5071661;28;20181;-73
2022/12/30 12:47:04;;;;;;;0.47;0.40;;;;;;;8.40;77.79;99585.25;5071645;28;20274;-74
2022/12/30 12:49:41;;;;;;;1.23;0.97;;;;;;;8.43;77.78;99595.50;5071595;28;20583;-74